Time;durP1;ratioP1;P1;durP2;ratioP2;P2;SDS_P1;SDS_P2;PMS_P1;PMS_P2;Temp;Humidity;BMP_temperature;BMP_pressure;BME280_temperature;BME280_humidity;BME280_pressure;Samples;Min_cycle;Max_cycle;Signal;HPM_P1;HPM_P2
2023/03/18 00:00:42;;;;;;;18.27;8.23;;;;;;;1.17;68.58;94295.94;5063014;28;20051;-68
2023/03/18 00:03:08;;;;;;;14.68;7.00;;;;;;;1.14;68.86;94290.38;5062983;28;20017;-70
2023/03/18 00:05:34;;;;;;;18.27;7.60;;;;;;;1.14;68.62;94293.00;5062879;28;20267;-69
2023/03/18 00:08:01;;;;;;;16.33;7.55;;;;;;;1.12;68.76;94287.19;5063144;28;20023;-69
2023/03/18 00:10:27;;;;;;;18.92;7.05;;;;;;;1.12;68.83;94289.81;5062932;28;20099;-68
2023/03/18 00:12:52;;;;;;;16.15;6.45;;;;;;;1.10;68.75;94284.84;5063013;28;20017;-69
2023/03/18 00:15:18;;;;;;;16.20;6.78;;;;;;;1.11;68.90;94280.38;5063000;28;20082;-69
2023/03/18 00:17:45;;;;;;;10.88;5.85;;;;;;;1.11;68.89;94285.63;5062877;28;20258;-69
2023/03/18 00:20:12;;;;;;;12.98;5.95;;;;;;;1.13;68.74;94284.34;5062536;28;20028;-69
2023/03/18 00:22:39;;;;;;;12.60;6.28;;;;;;;1.13;68.55;94283.56;5062894;28;20277;-69
2023/03/18 00:25:07;;;;;;;11.30;5.50;;;;;;;1.13;68.55;94273.06;5062895;28;20239;-69
2023/03/18 00:27:34;;;;;;;10.23;5.40;;;;;;;1.14;68.59;94275.44;5062954;28;20021;-69
2023/03/18 00:30:01;;;;;;;10.95;4.90;;;;;;;1.11;68.51;94269.88;5062983;28;20028;-68
2023/03/18 00:32:27;;;;;;;13.77;6.15;;;;;;;1.10;68.51;94268.28;5063035;28;20261;-68
2023/03/18 00:34:53;;;;;;;12.55;5.90;;;;;;;1.09;68.68;94261.44;5066886;28;20057;-69
2023/03/18 00:37:29;;;;;;;13.40;6.25;;;;;;;1.07;68.76;94268.78;5066827;28;20188;-69
2023/03/18 00:39:58;;;;;;;16.83;6.65;;;;;;;1.00;68.83;94268.97;5066865;28;20028;-69
2023/03/18 00:42:24;;;;;;;16.05;7.18;;;;;;;1.03;68.87;94257.19;5066751;28;20071;-69
2023/03/18 00:44:50;;;;;;;14.77;6.05;;;;;;;1.03;69.09;94257.19;5066692;28;20024;-69
2023/03/18 00:47:15;;;;;;;23.50;7.88;;;;;;;1.00;68.99;94253.22;5066562;28;20024;-69
2023/03/18 00:49:40;;;;;;;17.05;7.40;;;;;;;1.00;69.04;94250.59;5066494;28;20037;-69
2023/03/18 00:52:06;;;;;;;14.60;5.78;;;;;;;1.00;69.03;94240.09;5066532;28;20254;-69
2023/03/18 00:54:32;;;;;;;16.20;6.82;;;;;;;0.95;69.05;94250.50;5066520;28;20025;-69
2023/03/18 00:56:57;;;;;;;17.30;7.55;;;;;;;0.95;69.08;94235.53;5066796;28;20036;-69
2023/03/18 00:59:22;;;;;;;20.33;8.05;;;;;;;0.90;68.88;94240.75;5066506;28;20083;-69
2023/03/18 01:01:48;;;;;;;14.82;6.32;;;;;;;0.84;69.18;94236.47;5066519;28;20100;-68
2023/03/18 01:04:14;;;;;;;16.23;7.45;;;;;;;0.80;69.40;94232.75;5066477;28;20319;-68
2023/03/18 01:06:39;;;;;;;14.65;7.20;;;;;;;0.76;69.24;94234.25;5066286;28;20312;-68
2023/03/18 01:09:08;;;;;;;15.70;7.00;;;;;;;0.73;69.62;94237.34;5066173;28;20087;-68
2023/03/18 01:11:34;;;;;;;14.40;7.20;;;;;;;0.68;70.01;94235.47;5066310;28;20020;-68
2023/03/18 01:14:00;;;;;;;15.40;6.80;;;;;;;0.69;69.82;94237.06;5066291;28;20045;-68
2023/03/18 01:16:27;;;;;;;15.07;6.40;;;;;;;0.65;70.12;94225.44;5066349;28;20016;-68
2023/03/18 01:18:53;;;;;;;15.05;7.13;;;;;;;0.65;69.85;94216.78;5065911;28;20074;-68
2023/03/18 01:21:19;;;;;;;14.00;7.05;;;;;;;0.62;70.05;94212.03;5066102;28;20017;-68
2023/03/18 01:23:45;;;;;;;15.77;6.82;;;;;;;0.63;69.82;94226.72;5066089;28;20048;-68
2023/03/18 01:26:11;;;;;;;21.33;7.03;;;;;;;0.60;69.98;94222.75;5066087;28;20150;-68
2023/03/18 01:28:37;;;;;;;15.65;7.13;;;;;;;0.60;69.81;94223.56;5065842;28;20319;-68
2023/03/18 01:31:03;;;;;;;15.18;6.60;;;;;;;0.58;69.93;94223.00;5065930;28;20320;-68
2023/03/18 01:33:29;;;;;;;14.43;5.95;;;;;;;0.51;70.28;94219.75;5065944;28;20066;-68
2023/03/18 01:35:59;;;;;;;10.95;4.95;;;;;;;0.50;69.95;94220.78;5065853;28;20096;-68
2023/03/18 01:38:29;;;;;;;12.57;6.78;;;;;;;0.45;69.89;94212.03;5065540;28;20262;-68
2023/03/18 01:40:55;;;;;;;16.40;7.05;;;;;;;0.38;70.35;94214.84;5065729;28;20059;-68
2023/03/18 01:43:23;;;;;;;17.38;6.85;;;;;;;0.33;70.41;94212.16;5065351;28;20079;-68
2023/03/18 01:45:54;;;;;;;14.43;6.88;;;;;;;0.31;70.88;94214.22;5065551;28;20032;-68
2023/03/18 01:48:22;;;;;;;16.83;7.55;;;;;;;0.29;70.96;94214.47;5065386;28;20040;-68
2023/03/18 01:51:01;;;;;;;17.17;7.18;;;;;;;0.30;70.84;94210.78;5065535;28;20021;-68
2023/03/18 01:53:30;;;;;;;16.50;7.45;;;;;;;0.29;71.15;94218.91;5065534;28;20064;-68
2023/03/18 01:56:00;;;;;;;17.88;7.50;;;;;;;0.29;70.93;94216.31;5065469;28;20049;-68
2023/03/18 01:58:35;;;;;;;22.15;8.20;;;;;;;0.26;71.14;94216.75;5065322;28;20029;-69
2023/03/18 02:01:08;;;;;;;16.80;7.85;;;;;;;0.20;71.13;94202.78;5065400;28;20219;-68
2023/03/18 02:03:35;;;;;;;17.02;8.18;;;;;;;0.23;71.23;94206.78;5065417;28;20270;-68
2023/03/18 02:06:02;;;;;;;18.30;8.07;;;;;;;0.25;71.21;94205.50;5065412;28;20082;-68
2023/03/18 02:08:27;;;;;;;15.63;7.25;;;;;;;0.25;71.00;94200.25;5065318;28;20025;-68
2023/03/18 02:10:54;;;;;;;16.48;6.97;;;;;;;0.24;70.71;94198.66;5065146;28;20080;-68
2023/03/18 02:13:20;;;;;;;17.83;7.28;;;;;;;0.26;70.55;94201.03;5064983;28;20254;-68
2023/03/18 02:16:03;;;;;;;13.25;6.93;;;;;;;0.24;70.87;94195.22;5065109;28;20027;-68
2023/03/18 02:18:44;;;;;;;11.27;5.03;;;;;;;0.24;70.87;94198.66;5065245;28;20025;-69
2023/03/18 02:21:21;;;;;;;13.52;6.00;;;;;;;0.21;70.55;94191.28;5064731;28;20295;-69
2023/03/18 02:24:00;;;;;;;14.52;6.80;;;;;;;0.19;70.97;94204.63;5064806;28;20028;-69
2023/03/18 02:26:34;;;;;;;13.70;5.93;;;;;;;0.16;71.12;94199.88;5064999;28;20231;-69
2023/03/18 02:29:05;;;;;;;13.95;7.03;;;;;;;0.15;71.13;94197.47;5064947;28;20021;-69
2023/03/18 02:31:33;;;;;;;15.75;7.70;;;;;;;0.10;71.33;94197.38;5064647;28;20036;-70
2023/03/18 02:33:59;;;;;;;18.52;6.90;;;;;;;0.10;71.08;94203.44;5064845;28;20025;-69
2023/03/18 02:36:27;;;;;;;16.83;7.05;;;;;;;0.12;71.38;94190.06;5064719;28;20047;-69
2023/03/18 02:38:53;;;;;;;16.00;7.93;;;;;;;0.09;71.32;94188.75;5064492;28;20032;-69
2023/03/18 02:41:25;;;;;;;19.77;7.80;;;;;;;0.10;71.11;94194.75;5064626;28;20017;-69
2023/03/18 02:43:51;;;;;;;20.25;8.43;;;;;;;0.07;71.08;94195.25;5064598;28;20212;-69
2023/03/18 02:46:29;;;;;;;19.17;8.13;;;;;;;0.04;71.11;94200.97;5063401;28;20028;-69
2023/03/18 02:48:57;;;;;;;24.27;9.43;;;;;;;0.02;71.38;94193.34;5064227;28;20108;-69
2023/03/18 02:51:24;;;;;;;29.15;11.38;;;;;;;0.00;71.44;94198.03;5064403;28;20021;-69
2023/03/18 02:53:51;;;;;;;21.00;8.98;;;;;;;-0.02;71.59;94198.28;5064311;28;20025;-68
2023/03/18 02:56:16;;;;;;;20.40;9.88;;;;;;;-0.02;71.63;94200.09;5063737;28;20049;-69
2023/03/18 02:58:42;;;;;;;18.85;8.85;;;;;;;0.00;71.54;94200.66;5064133;28;20044;-69
2023/03/18 03:01:08;;;;;;;16.75;7.85;;;;;;;-0.01;71.45;94192.00;5063965;28;20028;-69
2023/03/18 03:03:35;;;;;;;21.45;8.43;;;;;;;-0.03;71.67;94198.50;5063968;28;20044;-69
2023/03/18 03:06:01;;;;;;;22.15;8.55;;;;;;;-0.07;71.63;94198.19;5064205;28;20373;-69
2023/03/18 03:08:26;;;;;;;20.35;8.82;;;;;;;-0.10;71.95;94197.84;5064267;28;20021;-69
2023/03/18 03:10:53;;;;;;;20.05;8.85;;;;;;;-0.16;71.93;94196.19;5063994;28;20040;-69
2023/03/18 03:13:21;;;;;;;18.48;9.13;;;;;;;-0.23;72.22;94199.75;5063747;28;20024;-69
2023/03/18 03:15:47;;;;;;;21.35;10.38;;;;;;;-0.26;72.34;94194.22;5063891;28;20041;-69
2023/03/18 03:18:13;;;;;;;21.23;11.32;;;;;;;-0.27;72.44;94197.84;5063931;28;20029;-69
2023/03/18 03:20:39;;;;;;;20.65;10.13;;;;;;;-0.24;72.55;94194.78;5063904;28;20020;-69
2023/03/18 03:23:06;;;;;;;25.10;12.00;;;;;;;-0.22;72.34;94196.13;5063813;28;20024;-69
2023/03/18 03:25:32;;;;;;;19.85;10.20;;;;;;;-0.26;72.49;94197.63;5063504;28;20347;-68
2023/03/18 03:28:00;;;;;;;23.02;10.73;;;;;;;-0.25;72.79;94204.44;5063809;28;20025;-68
2023/03/18 03:30:25;;;;;;;20.48;10.07;;;;;;;-0.27;72.84;94206.50;5063740;28;20270;-68
2023/03/18 03:32:51;;;;;;;23.55;10.57;;;;;;;-0.30;72.88;94208.81;5063702;28;20025;-68
2023/03/18 03:35:18;;;;;;;22.35;11.38;;;;;;;-0.37;73.02;94222.03;5063580;28;20088;-68
2023/03/18 03:37:44;;;;;;;21.73;10.88;;;;;;;-0.34;73.36;94221.59;5063261;28;20075;-68
2023/03/18 03:40:15;;;;;;;22.92;10.85;;;;;;;-0.33;73.23;94209.28;5063419;28;20029;-68
2023/03/18 03:42:42;;;;;;;26.92;11.55;;;;;;;-0.36;73.10;94210.56;5063366;28;20067;-68
2023/03/18 03:45:08;;;;;;;29.13;13.05;;;;;;;-0.37;73.52;94213.41;5063199;28;20052;-68
2023/03/18 03:47:33;;;;;;;31.42;14.02;;;;;;;-0.38;73.51;94217.84;5063110;28;20244;-68
2023/03/18 03:49:59;;;;;;;32.70;13.65;;;;;;;-0.36;73.69;94218.41;5063395;28;20021;-68
2023/03/18 03:52:25;;;;;;;37.50;15.35;;;;;;;-0.36;73.51;94218.41;5063328;28;20043;-68
2023/03/18 03:54:51;;;;;;;34.15;14.00;;;;;;;-0.38;73.64;94215.22;5063272;28;20028;-68
2023/03/18 03:57:17;;;;;;;33.60;13.82;;;;;;;-0.37;73.78;94208.16;5063063;28;20377;-68
2023/03/18 03:59:43;;;;;;;33.13;15.18;;;;;;;-0.38;73.86;94220.47;5063155;28;20084;-68
2023/03/18 04:02:08;;;;;;;38.13;15.57;;;;;;;-0.38;73.79;94212.63;5063165;28;20025;-68
2023/03/18 04:04:34;;;;;;;34.88;15.00;;;;;;;-0.38;73.79;94223.09;5063216;28;20083;-68
2023/03/18 04:07:00;;;;;;;28.13;13.00;;;;;;;-0.38;73.96;94219.69;5062852;28;20222;-68
2023/03/18 04:09:25;;;;;;;29.63;13.20;;;;;;;-0.41;73.89;94215.69;5062854;28;20032;-68
2023/03/18 04:11:50;;;;;;;32.88;12.88;;;;;;;-0.43;74.09;94225.59;5062840;28;20024;-69
2023/03/18 04:14:16;;;;;;;29.65;13.63;;;;;;;-0.43;74.40;94226.41;5063050;28;20036;-68
2023/03/18 04:16:43;;;;;;;30.75;13.32;;;;;;;-0.42;74.21;94235.06;5062811;28;20223;-68
2023/03/18 04:19:09;;;;;;;29.50;14.43;;;;;;;-0.38;74.00;94243.25;5062946;28;20033;-68
2023/03/18 04:21:35;;;;;;;42.10;16.25;;;;;;;-0.38;74.04;94243.25;5062804;28;20040;-68
2023/03/18 04:24:02;;;;;;;40.35;17.88;;;;;;;-0.42;74.52;94246.34;5062897;28;20025;-68
2023/03/18 04:26:29;;;;;;;52.05;18.65;;;;;;;-0.52;74.64;94245.34;5062982;28;20033;-68
2023/03/18 04:28:55;;;;;;;50.58;19.67;;;;;;;-0.55;74.74;94243.19;5062755;28;20212;-68
2023/03/18 04:31:21;;;;;;;53.38;19.35;;;;;;;-0.56;75.24;94250.25;5062684;28;20096;-68
2023/03/18 04:33:47;;;;;;;48.78;19.23;;;;;;;-0.61;75.35;94258.03;5062797;28;20095;-68
2023/03/18 04:36:12;;;;;;;58.67;18.83;;;;;;;-0.58;75.37;94254.16;5062764;28;20032;-68
2023/03/18 04:38:38;;;;;;;52.78;21.55;;;;;;;-0.57;75.32;94258.34;5062701;28;20029;-68
2023/03/18 04:41:05;;;;;;;54.25;21.90;;;;;;;-0.57;75.17;94260.97;5062567;28;20311;-68
2023/03/18 04:43:31;;;;;;;68.57;22.58;;;;;;;-0.57;75.36;94248.69;5062664;28;20090;-68
2023/03/18 04:45:56;;;;;;;64.07;21.95;;;;;;;-0.52;75.05;94253.22;5062741;28;20048;-68
2023/03/18 04:48:22;;;;;;;54.08;19.02;;;;;;;-0.47;74.39;94259.34;5062562;28;20107;-68
2023/03/18 04:50:48;;;;;;;44.88;17.45;;;;;;;-0.50;74.47;94256.41;5062647;28;20092;-68
2023/03/18 04:53:13;;;;;;;38.83;15.32;;;;;;;-0.50;74.10;94266.88;5062599;28;20316;-69
2023/03/18 04:55:39;;;;;;;40.13;17.98;;;;;;;-0.51;74.31;94265.25;5062395;28;20318;-69
2023/03/18 04:58:04;;;;;;;52.88;21.15;;;;;;;-0.48;74.60;94262.19;5062439;28;20316;-69
2023/03/18 05:00:30;;;;;;;50.65;23.35;;;;;;;-0.46;74.45;94262.75;5062667;28;20067;-69
2023/03/18 05:02:56;;;;;;;51.22;23.88;;;;;;;-0.45;74.69;94273.00;5062606;28;20032;-68
2023/03/18 05:05:21;;;;;;;51.33;23.85;;;;;;;-0.42;74.65;94264.66;5062552;28;20028;-68
2023/03/18 05:07:47;;;;;;;41.88;23.10;;;;;;;-0.33;74.51;94267.69;5062402;28;20041;-68
2023/03/18 05:10:13;;;;;;;47.88;20.58;;;;;;;-0.29;75.13;94268.81;5062605;28;20060;-68
2023/03/18 05:12:38;;;;;;;39.58;19.48;;;;;;;-0.24;75.20;94265.50;5061086;28;20067;-68
2023/03/18 05:15:05;;;;;;;40.17;18.85;;;;;;;-0.15;75.23;94273.78;5062281;28;20100;-68
2023/03/18 05:17:31;;;;;;;38.40;18.38;;;;;;;-0.13;75.23;94267.25;5062301;28;20024;-67
2023/03/18 05:19:56;;;;;;;36.03;18.33;;;;;;;-0.07;74.98;94260.28;5064952;28;20044;-67
2023/03/18 05:22:22;;;;;;;36.25;19.08;;;;;;;-0.02;74.93;94260.34;5066065;28;20017;-67
2023/03/18 05:24:48;;;;;;;35.67;17.92;;;;;;;0.03;75.01;94259.66;5066015;28;20058;-67
2023/03/18 05:27:16;;;;;;;35.88;18.30;;;;;;;0.07;75.09;94250.28;5065769;28;20021;-67
2023/03/18 05:29:41;;;;;;;34.13;17.42;;;;;;;0.12;75.47;94255.59;5065879;28;20060;-68
2023/03/18 05:32:08;;;;;;;33.22;15.75;;;;;;;0.16;75.73;94254.91;5065868;28;20017;-68
2023/03/18 05:34:38;;;;;;;32.30;16.27;;;;;;;0.25;75.84;94254.53;5065828;28;20251;-68
2023/03/18 05:37:05;;;;;;;38.60;17.88;;;;;;;0.30;75.74;94251.97;5065596;28;20365;-69
2023/03/18 05:39:32;;;;;;;48.42;23.05;;;;;;;0.41;75.73;94258.97;5065663;28;20025;-69
2023/03/18 05:41:57;;;;;;;46.88;22.52;;;;;;;0.48;75.68;94246.47;5065916;28;20032;-69
2023/03/18 05:44:23;;;;;;;52.17;24.42;;;;;;;0.59;75.35;94253.47;5065699;28;20311;-69
2023/03/18 05:46:51;;;;;;;53.97;24.48;;;;;;;0.60;75.25;94249.78;5065617;28;20039;-69
2023/03/18 05:49:17;;;;;;;67.68;26.85;;;;;;;0.66;75.27;94255.13;5065437;28;20033;-69
2023/03/18 05:51:43;;;;;;;67.03;30.50;;;;;;;0.67;75.08;94262.75;5065335;28;20029;-69
2023/03/18 05:54:09;;;;;;;62.65;32.33;;;;;;;0.67;74.80;94261.94;5065529;28;20032;-69
2023/03/18 05:56:35;;;;;;;72.88;34.80;;;;;;;0.69;74.75;94268.56;5065262;28;20054;-68
2023/03/18 05:59:00;;;;;;;59.10;31.38;;;;;;;0.67;74.29;94273.25;5065557;28;20025;-68
2023/03/18 06:01:26;;;;;;;65.35;30.02;;;;;;;0.62;74.43;94273.16;5064210;28;20027;-69
2023/03/18 06:03:52;;;;;;;63.70;30.90;;;;;;;0.67;74.20;94275.88;5065117;28;20066;-69
2023/03/18 06:06:18;;;;;;;65.50;32.97;;;;;;;0.68;74.29;94287.16;5065145;28;20025;-69
2023/03/18 06:08:45;;;;;;;69.18;35.80;;;;;;;0.64;74.42;94286.03;5065174;28;20032;-68
2023/03/18 06:11:11;;;;;;;71.47;34.83;;;;;;;0.66;74.57;94297.88;5065040;28;20025;-69
2023/03/18 06:13:37;;;;;;;61.95;36.00;;;;;;;0.59;74.21;94294.59;5065226;28;20075;-69
2023/03/18 06:16:03;;;;;;;65.85;34.58;;;;;;;0.58;74.37;94288.56;5063860;28;20021;-68
2023/03/18 06:18:29;;;;;;;59.88;31.48;;;;;;;0.64;74.24;94294.69;5065026;28;20144;-68
2023/03/18 06:20:55;;;;;;;52.30;27.90;;;;;;;0.69;73.81;94299.22;5064961;28;20278;-69
2023/03/18 06:23:21;;;;;;;39.80;22.95;;;;;;;0.76;73.38;94297.25;5064810;28;20346;-68
2023/03/18 06:25:48;;;;;;;38.15;21.40;;;;;;;0.83;72.42;94295.22;5064880;28;20020;-68
2023/03/18 06:28:14;;;;;;;34.92;19.15;;;;;;;0.88;71.74;94299.78;5064901;28;20016;-69
2023/03/18 06:30:40;;;;;;;38.13;19.92;;;;;;;0.96;71.48;94289.66;5063751;28;20098;-69
2023/03/18 06:33:07;;;;;;;39.88;20.85;;;;;;;1.04;71.47;94285.81;5064717;28;20025;-69
2023/03/18 06:35:33;;;;;;;34.28;18.35;;;;;;;1.11;71.19;94281.16;5064457;28;20035;-69
2023/03/18 06:37:58;;;;;;;38.13;18.52;;;;;;;1.22;71.14;94268.94;5064662;28;20228;-70
2023/03/18 06:40:24;;;;;;;35.28;17.95;;;;;;;1.31;70.74;94261.47;5064584;28;20020;-70
2023/03/18 06:42:50;;;;;;;30.58;17.13;;;;;;;1.38;70.15;94260.25;5063348;28;20292;-69
2023/03/18 06:45:16;;;;;;;39.85;19.35;;;;;;;1.50;69.76;94257.47;5064357;28;20062;-69
2023/03/18 06:47:42;;;;;;;44.70;18.95;;;;;;;1.63;68.42;94253.69;5063903;28;20012;-70
2023/03/18 06:50:09;;;;;;;32.25;17.00;;;;;;;1.73;67.96;94245.06;5064064;28;20315;-70
2023/03/18 06:52:35;;;;;;;32.10;16.55;;;;;;;1.83;67.79;94254.91;5064059;28;20025;-70
2023/03/18 06:55:02;;;;;;;30.65;15.50;;;;;;;1.94;67.38;94253.97;5064024;28;20341;-69
2023/03/18 06:57:27;;;;;;;27.88;12.30;;;;;;;1.95;66.90;94242.41;5064101;28;20024;-70
2023/03/18 06:59:53;;;;;;;20.92;10.05;;;;;;;2.03;66.70;94251.66;5063822;28;20016;-70
2023/03/18 07:02:22;;;;;;;28.67;12.48;;;;;;;2.14;67.17;94259.41;5063994;28;20227;-69
2023/03/18 07:04:48;;;;;;;35.67;14.65;;;;;;;2.23;67.66;94258.94;5063493;28;20088;-69
2023/03/18 07:07:13;;;;;;;26.75;12.82;;;;;;;2.32;67.67;94267.94;5062385;28;20299;-69
2023/03/18 07:09:39;;;;;;;31.90;13.23;;;;;;;2.35;67.13;94259.56;5063600;28;20021;-69
2023/03/18 07:12:05;;;;;;;27.45;13.70;;;;;;;2.43;67.66;94256.47;5063688;28;20025;-69
2023/03/18 07:14:31;;;;;;;22.83;11.30;;;;;;;2.47;66.90;94249.66;5063663;28;20031;-68
2023/03/18 07:16:56;;;;;;;21.25;11.80;;;;;;;2.51;66.30;94252.59;5063769;28;20017;-68
2023/03/18 07:19:22;;;;;;;20.42;11.88;;;;;;;2.56;66.23;94248.13;5063394;28;20327;-68
2023/03/18 07:21:48;;;;;;;24.27;12.73;;;;;;;2.61;66.87;94257.91;5063401;28;20028;-69
2023/03/18 07:24:13;;;;;;;24.42;11.63;;;;;;;2.63;66.75;94258.47;5063334;28;20032;-69
2023/03/18 07:26:40;;;;;;;22.83;12.07;;;;;;;2.65;66.86;94258.22;5063652;28;20257;-69
2023/03/18 07:29:05;;;;;;;22.88;11.25;;;;;;;2.68;66.21;94257.69;5063691;28;20062;-68
2023/03/18 07:31:31;;;;;;;24.35;11.10;;;;;;;2.69;65.92;94248.75;5063605;28;20311;-68
2023/03/18 07:33:56;;;;;;;35.10;12.35;;;;;;;2.79;66.14;94251.47;5063497;28;20025;-68
2023/03/18 07:36:23;;;;;;;28.42;13.27;;;;;;;2.88;67.12;94255.19;5063216;28;20029;-68
2023/03/18 07:38:48;;;;;;;28.30;13.02;;;;;;;2.96;66.37;94257.34;5063291;28;20208;-68
2023/03/18 07:41:14;;;;;;;25.15;13.68;;;;;;;3.05;66.22;94256.84;5063532;28;20088;-68
2023/03/18 07:43:40;;;;;;;31.80;13.68;;;;;;;3.08;65.32;94258.97;5063291;28;20017;-69
2023/03/18 07:46:06;;;;;;;35.60;15.10;;;;;;;3.11;65.38;94256.59;5063366;28;20208;-69
2023/03/18 07:48:33;;;;;;;39.05;19.48;;;;;;;3.11;65.96;94264.50;5063133;28;20040;-68
2023/03/18 07:50:59;;;;;;;43.25;19.83;;;;;;;3.16;66.28;94269.81;5063128;28;20085;-68
2023/03/18 07:53:26;;;;;;;38.45;19.15;;;;;;;3.18;65.74;94267.72;5063316;28;20052;-68
2023/03/18 07:55:52;;;;;;;40.70;19.88;;;;;;;3.19;65.68;94268.50;5062844;28;20035;-67
2023/03/18 07:58:17;;;;;;;44.72;19.55;;;;;;;3.24;65.12;94268.53;5063032;28;20033;-68
2023/03/18 08:00:43;;;;;;;50.75;22.33;;;;;;;3.22;65.81;94265.38;5063103;28;20254;-68
2023/03/18 08:03:10;;;;;;;48.13;21.52;;;;;;;3.27;65.73;94267.22;5063036;28;20273;-68
2023/03/18 08:05:36;;;;;;;49.00;20.08;;;;;;;3.40;65.80;94272.81;5062902;28;20036;-68
2023/03/18 08:08:03;;;;;;;40.17;20.63;;;;;;;3.48;64.98;94268.09;5063164;28;20036;-68
2023/03/18 08:10:28;;;;;;;44.28;22.13;;;;;;;3.53;65.12;94260.22;5063021;28;20029;-68
2023/03/18 08:12:54;;;;;;;52.95;23.25;;;;;;;3.56;64.97;94264.97;5062749;28;20059;-70
2023/03/18 08:15:21;;;;;;;48.72;21.75;;;;;;;3.67;65.67;94258.69;5062855;28;20033;-69
2023/03/18 08:17:46;;;;;;;45.33;22.83;;;;;;;3.75;65.83;94247.63;5061937;28;20025;-69
2023/03/18 08:20:12;;;;;;;45.75;22.35;;;;;;;3.87;65.37;94249.22;5062637;28;20036;-69
2023/03/18 08:22:37;;;;;;;39.15;19.80;;;;;;;3.92;64.98;94251.88;5062804;28;20027;-69
2023/03/18 08:25:03;;;;;;;45.90;21.80;;;;;;;4.04;64.12;94259.56;5062793;28;20094;-69
2023/03/18 08:27:29;;;;;;;39.72;21.38;;;;;;;4.09;64.36;94260.34;5062936;28;20079;-69
2023/03/18 08:29:54;;;;;;;50.55;22.17;;;;;;;4.21;64.26;94258.25;5062902;28;20025;-69
2023/03/18 08:32:20;;;;;;;43.05;21.08;;;;;;;4.39;65.15;94264.06;5062484;28;20247;-72
2023/03/18 08:34:46;;;;;;;43.92;21.90;;;;;;;4.50;65.10;94268.28;5062397;28;20021;-72
2023/03/18 08:37:13;;;;;;;40.38;20.42;;;;;;;4.63;64.73;94266.97;5062517;28;20059;-72
2023/03/18 08:39:40;;;;;;;46.05;20.00;;;;;;;4.85;63.67;94258.75;5062460;28;20084;-72
2023/03/18 08:42:06;;;;;;;39.15;19.88;;;;;;;5.00;62.20;94258.69;5062323;28;20021;-72
2023/03/18 08:44:31;;;;;;;41.47;20.20;;;;;;;5.20;60.45;94260.50;5062529;28;20020;-72
2023/03/18 08:46:57;;;;;;;36.55;19.83;;;;;;;5.29;60.21;94252.84;5062565;28;20017;-72
2023/03/18 08:49:23;;;;;;;37.28;18.13;;;;;;;5.44;59.63;94265.19;5061142;28;20045;-72
2023/03/18 08:51:49;;;;;;;41.08;18.05;;;;;;;5.41;59.51;94260.44;5062169;28;20219;-69
2023/03/18 08:54:15;;;;;;;41.20;17.42;;;;;;;5.42;58.69;94262.81;5064233;28;20096;-69
2023/03/18 08:56:41;;;;;;;45.92;19.10;;;;;;;5.41;57.89;94268.38;5066620;28;20084;-69
2023/03/18 08:59:07;;;;;;;36.83;19.25;;;;;;;5.51;58.62;94265.69;5066514;28;20091;-69
2023/03/18 09:01:32;;;;;;;39.88;16.17;;;;;;;5.59;58.18;94267.75;5066448;28;20215;-69
2023/03/18 09:03:58;;;;;;;30.15;13.93;;;;;;;5.65;57.58;94271.19;5066303;28;20205;-69
2023/03/18 09:06:24;;;;;;;34.03;14.55;;;;;;;5.82;56.35;94270.81;5066299;28;20312;-69
2023/03/18 09:08:50;;;;;;;29.88;14.75;;;;;;;5.90;55.55;94272.13;5066463;28;20017;-69
2023/03/18 09:11:16;;;;;;;31.58;14.30;;;;;;;5.96;54.41;94271.03;5066255;28;20020;-69
2023/03/18 09:13:42;;;;;;;27.85;14.07;;;;;;;5.91;54.42;94266.56;5065973;28;20028;-69
2023/03/18 09:16:07;;;;;;;31.10;16.02;;;;;;;5.78;54.97;94269.78;5066085;28;20262;-68
2023/03/18 09:18:34;;;;;;;28.65;15.15;;;;;;;5.80;55.71;94276.41;5066027;28;20032;-68
2023/03/18 09:21:00;;;;;;;30.05;13.63;;;;;;;5.85;55.60;94274.81;5066249;28;20096;-68
2023/03/18 09:23:26;;;;;;;27.25;13.90;;;;;;;6.00;55.86;94274.72;5066009;28;20338;-68
2023/03/18 09:25:53;;;;;;;25.42;12.50;;;;;;;6.19;55.36;94280.97;5065783;28;20031;-68
2023/03/18 09:28:19;;;;;;;32.53;13.18;;;;;;;6.39;54.59;94272.09;5066031;28;20021;-68
2023/03/18 09:30:45;;;;;;;20.20;9.27;;;;;;;6.56;51.42;94274.34;5065875;28;20059;-68
2023/03/18 09:33:10;;;;;;;15.15;8.68;;;;;;;6.73;49.76;94278.47;5065915;28;20052;-68
2023/03/18 09:35:36;;;;;;;17.70;7.45;;;;;;;6.77;48.27;94269.66;5065604;28;20376;-69
2023/03/18 09:38:03;;;;;;;9.23;4.28;;;;;;;6.81;44.13;94265.38;5065363;28;20338;-69
2023/03/18 09:40:31;;;;;;;9.43;4.63;;;;;;;6.89;44.91;94265.88;5065730;28;20203;-69
2023/03/18 09:43:18;;;;;;;10.27;5.20;;;;;;;7.01;45.30;94267.06;5065217;28;20023;-69
2023/03/18 09:46:05;;;;;;;12.25;5.00;;;;;;;7.14;44.95;94267.47;5065367;28;20032;-69
2023/03/18 09:48:42;;;;;;;12.38;4.35;;;;;;;7.23;45.03;94265.81;5065280;28;20326;-69
2023/03/18 09:51:21;;;;;;;9.40;4.30;;;;;;;7.36;43.46;94256.38;5065318;28;20021;-69
2023/03/18 09:53:50;;;;;;;11.10;5.20;;;;;;;7.36;43.83;94265.09;5065337;28;20052;-69
2023/03/18 09:56:25;;;;;;;11.73;5.25;;;;;;;7.30;45.38;94265.44;5065429;28;20036;-69
2023/03/18 09:58:59;;;;;;;17.90;6.05;;;;;;;7.48;46.41;94258.63;5065214;28;20020;-69
2023/03/18 10:01:27;;;;;;;12.70;4.40;;;;;;;7.61;45.38;94274.66;5065244;28;20028;-69
2023/03/18 10:04:20;;;;;;;9.18;5.20;;;;;;;7.69;45.13;94262.59;5064838;28;20338;-69
2023/03/18 10:06:49;;;;;;;9.98;5.20;;;;;;;7.91;44.22;94269.25;5063706;28;20204;-69
2023/03/18 10:09:27;;;;;;;9.30;4.97;;;;;;;8.12;44.83;94265.25;5064947;28;20016;-69
2023/03/18 10:12:04;;;;;;;9.45;5.15;;;;;;;8.30;44.59;94266.28;5064938;28;20029;-69
2023/03/18 10:14:32;;;;;;;11.30;5.95;;;;;;;8.53;43.55;94267.31;5065112;28;20092;-69
2023/03/18 10:17:22;;;;;;;9.10;3.85;;;;;;;8.49;40.93;94266.31;5064908;28;20219;-69
2023/03/18 10:19:57;;;;;;;4.90;2.55;;;;;;;8.51;40.32;94272.13;5064661;28;20021;-69
2023/03/18 10:22:36;;;;;;;6.05;3.28;;;;;;;8.61;40.37;94269.31;5064717;28;20087;-69
2023/03/18 10:25:21;;;;;;;6.97;3.03;;;;;;;8.74;39.82;94265.13;5064326;28;20029;-69
2023/03/18 10:28:04;;;;;;;6.72;2.13;;;;;;;8.51;36.38;94272.13;5064552;28;20043;-69
2023/03/18 10:30:48;;;;;;;4.90;2.63;;;;;;;8.58;37.69;94261.13;5064673;28;20270;-68
2023/03/18 10:33:22;;;;;;;13.77;3.65;;;;;;;8.50;37.61;94264.44;5064598;28;20033;-69
2023/03/18 10:35:53;;;;;;;7.43;2.85;;;;;;;8.61;37.43;94266.66;5064333;28;20032;-69
2023/03/18 10:38:25;;;;;;;7.22;3.85;;;;;;;8.61;36.40;94266.66;5064261;28;20029;-69
2023/03/18 10:40:51;;;;;;;10.13;3.03;;;;;;;8.64;34.92;94267.94;5064547;28;20055;-69
2023/03/18 10:43:22;;;;;;;4.97;2.53;;;;;;;8.53;34.74;94262.00;5064426;28;20032;-68
2023/03/18 10:46:02;;;;;;;15.00;8.93;;;;;;;8.57;35.63;94252.38;5064222;28;20032;-69
2023/03/18 10:48:38;;;;;;;10.02;5.82;;;;;;;8.59;37.71;94254.75;5064264;28;20041;-68
2023/03/18 10:51:25;;;;;;;15.60;7.43;;;;;;;8.94;37.93;94261.34;5064246;28;20029;-68
2023/03/18 10:53:56;;;;;;;12.80;4.78;;;;;;;9.28;37.56;94252.22;5063904;28;20096;-69
2023/03/18 10:56:22;;;;;;;17.02;6.57;;;;;;;9.44;36.87;94250.03;5064164;28;20037;-69
2023/03/18 10:58:49;;;;;;;48.63;26.08;;;;;;;9.41;35.76;94251.44;5064150;28;20213;-69
2023/03/18 11:01:17;;;;;;;32.03;16.63;;;;;;;9.58;35.73;94242.06;5063684;28;20029;-69
2023/03/18 11:03:49;;;;;;;10.10;4.10;;;;;;;9.69;34.85;94246.13;5063711;28;20104;-69
2023/03/18 11:06:35;;;;;;;6.90;3.40;;;;;;;9.82;32.48;94231.19;5064075;28;20036;-69
2023/03/18 11:09:07;;;;;;;10.25;3.05;;;;;;;10.20;34.11;94234.38;5063913;28;20012;-69
2023/03/18 11:11:34;;;;;;;4.53;2.85;;;;;;;10.50;33.85;94237.44;5063852;28;20048;-69
2023/03/18 11:14:04;;;;;;;6.47;3.03;;;;;;;10.79;33.23;94237.00;5063911;28;20017;-69
2023/03/18 11:16:33;;;;;;;6.30;3.17;;;;;;;10.97;33.12;94237.91;5063478;28;20021;-69
2023/03/18 11:19:04;;;;;;;13.35;3.40;;;;;;;10.98;32.83;94242.13;5063522;28;20248;-69
2023/03/18 11:21:30;;;;;;;7.47;2.80;;;;;;;10.75;32.80;94237.94;5063793;28;20016;-69
2023/03/18 11:24:09;;;;;;;14.75;2.60;;;;;;;10.89;32.24;94237.84;5063791;28;20268;-68
2023/03/18 11:26:54;;;;;;;9.35;3.00;;;;;;;10.82;32.34;94238.28;5063451;28;20052;-70
2023/03/18 11:29:25;;;;;;;11.93;3.00;;;;;;;10.38;34.11;94234.50;5063504;28;20170;-69